SUI2 LSZB-LSZB
Flight info
| Callsign | SUI2 |
|---|---|
| Flight time | 0h 8m |
| Altitude | 7000 |
| Route | KONOL |
| Aircraft | C17/H-SDE1E2FGHIJ5RTUWXY/LB1D1 |
Departure
| Time | 2026-04-27 19:40 |
|---|---|
| Airport | Bern Airport (LSZB) |
Arrival
| Time | 2026-04-27 19:49 |
|---|---|
| Airport | Bern Airport (LSZB) |
| Time | Latitude | Longitude | Altitude | Speed | Heading |
|---|---|---|---|---|---|
| 2026-04-27 19:34 | 46.91307 | 7.50074 | 1678 ft | 0 kts | 86° |
| 2026-04-27 19:36 | 46.91307 | 7.50075 | 1677 ft | 0 kts | 85° |
| 2026-04-27 19:36 | 46.91306 | 7.50079 | 1677 ft | 2 kts | 98° |
| 2026-04-27 19:36 | 46.91305 | 7.50080 | 1677 ft | 0 kts | 103° |
| 2026-04-27 19:37 | 46.91282 | 7.50067 | 1690 ft | 1 kts | 253° |
| 2026-04-27 19:37 | 46.91272 | 7.50016 | 1677 ft | 9 kts | 253° |
| 2026-04-27 19:38 | 46.91242 | 7.49945 | 1684 ft | 6 kts | 198° |
| 2026-04-27 19:38 | 46.91185 | 7.49993 | 1689 ft | 20 kts | 139° |
| 2026-04-27 19:38 | 46.90995 | 7.50230 | 1690 ft | 42 kts | 140° |
| 2026-04-27 19:38 | 46.90774 | 7.50503 | 1677 ft | 35 kts | 139° |
| 2026-04-27 19:39 | 46.90726 | 7.50561 | 1682 ft | 1 kts | 191° |
| 2026-04-27 19:39 | 46.90721 | 7.50550 | 1682 ft | 2 kts | 251° |
| 2026-04-27 19:39 | 46.90726 | 7.50538 | 1682 ft | 0 kts | 318° |
| 2026-04-27 19:39 | 46.90833 | 7.50417 | 1684 ft | 51 kts | 322° |
| 2026-04-27 19:40 | 46.91275 | 7.49891 | 1691 ft | 110 kts | 319° |
| 2026-04-27 19:40 | 46.91986 | 7.49060 | 1721 ft | 146 kts | 322° |
| 2026-04-27 19:40 | 46.92742 | 7.48101 | 2480 ft | 263 kts | 319° |
| 2026-04-27 19:40 | 46.94127 | 7.46324 | 2562 ft | 275 kts | 319° |
| 2026-04-27 19:41 | 46.95650 | 7.44343 | 2733 ft | 303 kts | 316° |
| 2026-04-27 19:41 | 46.96820 | 7.42120 | 4778 ft | 241 kts | 293° |
| 2026-04-27 19:41 | 46.97000 | 7.39776 | 6132 ft | 246 kts | 257° |
| 2026-04-27 19:41 | 46.95783 | 7.38165 | 6413 ft | 247 kts | 188° |
| 2026-04-27 19:42 | 46.94097 | 7.38022 | 7406 ft | 242 kts | 181° |
| 2026-04-27 19:42 | 46.92395 | 7.37978 | 8080 ft | 253 kts | 182° |
| 2026-04-27 19:42 | 46.90496 | 7.37915 | 8068 ft | 289 kts | 181° |
| 2026-04-27 19:42 | 46.88456 | 7.38156 | 8271 ft | 312 kts | 172° |
| 2026-04-27 19:43 | 46.86200 | 7.38881 | 8060 ft | 351 kts | 164° |
| 2026-04-27 19:43 | 46.83927 | 7.40315 | 8656 ft | 354 kts | 150° |
| 2026-04-27 19:43 | 46.81994 | 7.42558 | 9443 ft | 360 kts | 135° |
| 2026-04-27 19:43 | 46.80361 | 7.45470 | 9663 ft | 384 kts | 127° |
| 2026-04-27 19:44 | 46.78844 | 7.48839 | 9524 ft | 412 kts | 123° |
| 2026-04-27 19:44 | 46.77346 | 7.52482 | 9416 ft | 418 kts | 121° |
| 2026-04-27 19:44 | 46.75941 | 7.56142 | 9381 ft | 408 kts | 120° |
| 2026-04-27 19:44 | 46.74620 | 7.59730 | 9534 ft | 396 kts | 118° |
| 2026-04-27 19:45 | 46.73354 | 7.63294 | 9675 ft | 398 kts | 118° |
| 2026-04-27 19:45 | 46.71648 | 7.66237 | 9662 ft | 370 kts | 189° |
| 2026-04-27 19:45 | 46.70964 | 7.63603 | 8886 ft | 360 kts | 310° |
| 2026-04-27 19:45 | 46.73050 | 7.61208 | 8114 ft | 399 kts | 325° |
| 2026-04-27 19:46 | 46.75655 | 7.59220 | 7675 ft | 435 kts | 336° |
| 2026-04-27 19:46 | 46.78422 | 7.57562 | 7428 ft | 413 kts | 339° |
| 2026-04-27 19:46 | 46.80781 | 7.56253 | 6844 ft | 296 kts | 340° |
| 2026-04-27 19:46 | 46.82517 | 7.55393 | 5531 ft | 233 kts | 342° |
| 2026-04-27 19:47 | 46.84016 | 7.54887 | 3975 ft | 202 kts | 351° |
| 2026-04-27 19:47 | 46.85341 | 7.54529 | 3653 ft | 189 kts | 347° |
| 2026-04-27 19:47 | 46.86622 | 7.54093 | 3267 ft | 188 kts | 344° |
| 2026-04-27 19:47 | 46.87869 | 7.53495 | 2726 ft | 189 kts | 338° |
| 2026-04-27 19:48 | 46.89025 | 7.52578 | 2198 ft | 180 kts | 327° |
| 2026-04-27 19:48 | 46.89924 | 7.51514 | 1871 ft | 155 kts | 319° |
| 2026-04-27 19:48 | 46.90692 | 7.50598 | 1684 ft | 135 kts | 321° |
| 2026-04-27 19:48 | 46.91233 | 7.49943 | 1689 ft | 67 kts | 319° |
| 2026-04-27 19:49 | 46.91441 | 7.49675 | 1685 ft | 18 kts | 319° |
| 2026-04-27 19:49 | 46.91468 | 7.49643 | 1688 ft | 5 kts | 328° |
| 2026-04-27 19:49 | 46.91506 | 7.49655 | 1684 ft | 6 kts | 42° |
| 2026-04-27 19:49 | 46.91521 | 7.49712 | 1686 ft | 8 kts | 107° |
| 2026-04-27 19:50 | 46.90761 | 7.50515 | 1686 ft | 0 kts | 321° |